Strona główna
METAR-TAF:

METAR-TAF

Lotnisko :

Port lotniczy Nawakszut

Nawakszut, Mauretania

Szerokość geograficzna: 18-18-36N, Długość geograficzna: 015-58-11W, wysokość: 3 m

Aktualna obserwacja pogody

Raport powstał 40 minut temu, godzina 06:30 UTC
Wiatr 12 kt od północ
Temperatura 23°C
Wilgotność 73%
Ciśnienie 1010 hPa
Widzialność: 8000 m

METAR: GQNO 200630Z 35012KT 8000 NSC 23/18 Q1010 NOSIG

czas: 07:10 (07:10 UTC)

Prognoza

Raport powstał 1 godzina i 40 minut temu, godzina 05:30 UTC
Prognoza ważna od 20 godzina 06 UTC do 21 godzina 12 UTC
Wiatr 14 kt od północno-północny zachód
Widzialność: 7000 m
Prawdopodobieństwo 40%
od 20 godzina 10 UTC do 20 godzina 16 UTC
Widzialność: 4000 m
zawieja piaskowa

TAF: GQNO 200530Z 2006/2112 33014KT 7000 NSC PROB40TEMPO 2010/2016 4000 BLSA

Obserwacja i prognoza pogody dla ponad 4000 lotnisk (raport METAR i TAF).

Dostępne stacje oznaczono żółtymi i czerwonymi punktami na mapie.

Najedź kursorem aby zobaczyć nazwę stacji.

Kliknij aby zobaczyć obserwacje i prognozy pogody.

Aby zmienić mapę: kliknij na zielony przycisk z czarnym krzyżykiem, aby powiększyć; na zielony przycisk z myślnikiem, aby pomniejszyć; na zielone strzałki, aby przejść do map sąsiednich.


METAR-TAF: